メインページ
METAR-TAF:

METAR-TAF

空港 :

デンバー, コロラド州, アメリカ合衆国

デンバー国際空港

緯度: 39-49-58N, 経度: 104-39-27W, 海抜: 1655m

現時点の気象観測

当レポートは44分前の21:53(UTC)に作成
の風 9kt
気温 28°C
湿度 40%
気圧 1023 hPa
視程: 16.1km
高度5000ftの雲は散在している
高度11000ftの千切れ雲あり
高度20000ftの千切れ雲あり

METAR: KDEN 262153Z 01009KT 10SM SCT050 BKN110 BKN200 28/13 A3022 RMK AO2 SLP150 T02830133

時間: 16:37 (22:37 UTC)

予報

当レポートは1時間34分前の21:03(UTC)に作成
予報は26日の 21時(UTC)から 27日の 24時(UTC)まで有効
の風 11kt
視程: 10km
高度4000ftの雲は散在している
高度11000ftの千切れ雲あり
26日の 2200時(UTC)から
北/北東の風 9kt
視程: 10km
高度4500ftの雲は散在している, 積乱雲.
高度8000ftの千切れ雲あり
近辺で激しい雷雨
26日の 23時(UTC)から 27日の 02時(UTC)まで一時的に
変向風 15kt、最大25ktの突風を伴う
視程: 8.0km
高度2500ftの千切れ雲あり
高度3500ftの曇り, 積乱雲.
激しい雷雨, 雨
27日の 0200時(UTC)から
北東の風 9kt
視程: 10km
高度4500ftの千切れ雲あり
高度8000ftの千切れ雲あり
近辺でにわか雨
27日の 0700時(UTC)から
南/南西の風 7kt
視程: 10km
高度5000ftの雲は散在している
高度10000ftの千切れ雲あり
27日の 10時(UTC)から 27日の 14時(UTC)まで一時的に
高度3500ftの雲は散在している
高度5000ftの千切れ雲あり

TAF: KDEN 262103Z 2621/2724 01011KT P6SM SCT040 BKN110 FM262200 02009KT P6SM VCTS SCT045CB BKN080 TEMPO 2623/2702 VRB15G25KT 5SM TSRA BKN025 OVC035CB FM270200 05009KT P6SM VCSH BKN045 BKN080 FM270700 20007KT P6SM SCT050 BKN100 TEMPO 2710/2714 SCT035 BKN050

4,000以上の空港の気象観測と天気予報(METAR報とTAF報)

利用可能な観測所は地図上に黄色い丸と赤い丸で示す。

丸の上にカーソルを重ねると観測所名を参照できる。

次にクリックすると気象観測と天気予報を参照できる。

マップの切り替え:黒色「×」印の緑ボタンをクリックして拡大、「-」印の緑ボタンをクリックして縮小、緑色の三角印をクリックして隣りの地図に切り替え


METAR-TAF: